sensor_id;sensor_type;location;lat;lon;timestamp;P1;durP1;ratioP1;P2;durP2;ratioP2
69310;SDS011;56430;48.154;16.458;2023-02-26T00:00:11;5.43;;;1.25;;
69310;SDS011;56430;48.154;16.458;2023-02-26T00:02:39;2.85;;;0.73;;
69310;SDS011;56430;48.154;16.458;2023-02-26T00:05:06;2.90;;;0.90;;
69310;SDS011;56430;48.154;16.458;2023-02-26T00:07:33;2.28;;;0.60;;
69310;SDS011;56430;48.154;16.458;2023-02-26T00:10:00;3.58;;;1.02;;
69310;SDS011;56430;48.154;16.458;2023-02-26T00:12:29;3.28;;;0.77;;
69310;SDS011;56430;48.154;16.458;2023-02-26T00:14:56;3.65;;;0.85;;
69310;SDS011;56430;48.154;16.458;2023-02-26T00:17:29;2.57;;;0.80;;
69310;SDS011;56430;48.154;16.458;2023-02-26T00:19:57;4.57;;;1.00;;
69310;SDS011;56430;48.154;16.458;2023-02-26T00:22:25;2.67;;;0.80;;
69310;SDS011;56430;48.154;16.458;2023-02-26T00:24:52;3.83;;;1.10;;
69310;SDS011;56430;48.154;16.458;2023-02-26T00:27:18;2.97;;;1.05;;
69310;SDS011;56430;48.154;16.458;2023-02-26T00:29:47;3.70;;;1.20;;
69310;SDS011;56430;48.154;16.458;2023-02-26T00:32:15;2.90;;;0.80;;
69310;SDS011;56430;48.154;16.458;2023-02-26T00:34:43;3.47;;;1.00;;
69310;SDS011;56430;48.154;16.458;2023-02-26T00:37:12;5.38;;;0.90;;
69310;SDS011;56430;48.154;16.458;2023-02-26T00:39:45;4.03;;;0.85;;
69310;SDS011;56430;48.154;16.458;2023-02-26T00:42:14;2.57;;;0.80;;
69310;SDS011;56430;48.154;16.458;2023-02-26T00:44:42;5.18;;;0.88;;
69310;SDS011;56430;48.154;16.458;2023-02-26T00:47:12;2.85;;;0.75;;
69310;SDS011;56430;48.154;16.458;2023-02-26T00:49:46;2.80;;;0.80;;
69310;SDS011;56430;48.154;16.458;2023-02-26T00:52:17;2.70;;;0.80;;
69310;SDS011;56430;48.154;16.458;2023-02-26T00:54:45;3.23;;;0.90;;
69310;SDS011;56430;48.154;16.458;2023-02-26T00:57:11;4.00;;;1.23;;
69310;SDS011;56430;48.154;16.458;2023-02-26T00:59:38;3.20;;;0.82;;
69310;SDS011;56430;48.154;16.458;2023-02-26T01:02:05;2.05;;;0.50;;
69310;SDS011;56430;48.154;16.458;2023-02-26T01:04:34;3.03;;;0.82;;
69310;SDS011;56430;48.154;16.458;2023-02-26T01:07:02;3.50;;;0.70;;
69310;SDS011;56430;48.154;16.458;2023-02-26T01:09:30;2.53;;;0.60;;
69310;SDS011;56430;48.154;16.458;2023-02-26T01:11:58;2.65;;;0.73;;
69310;SDS011;56430;48.154;16.458;2023-02-26T01:14:26;3.05;;;0.85;;
69310;SDS011;56430;48.154;16.458;2023-02-26T01:16:54;3.92;;;0.90;;
69310;SDS011;56430;48.154;16.458;2023-02-26T01:19:25;2.97;;;0.80;;
69310;SDS011;56430;48.154;16.458;2023-02-26T01:21:56;3.53;;;0.80;;
69310;SDS011;56430;48.154;16.458;2023-02-26T01:24:25;3.20;;;0.80;;
69310;SDS011;56430;48.154;16.458;2023-02-26T01:26:54;3.63;;;1.02;;
69310;SDS011;56430;48.154;16.458;2023-02-26T01:29:21;3.47;;;0.82;;
69310;SDS011;56430;48.154;16.458;2023-02-26T01:31:48;2.50;;;0.63;;
69310;SDS011;56430;48.154;16.458;2023-02-26T01:34:17;2.58;;;0.55;;
69310;SDS011;56430;48.154;16.458;2023-02-26T01:36:47;2.58;;;0.60;;
69310;SDS011;56430;48.154;16.458;2023-02-26T01:39:18;2.83;;;0.60;;
69310;SDS011;56430;48.154;16.458;2023-02-26T01:41:49;2.63;;;0.68;;
69310;SDS011;56430;48.154;16.458;2023-02-26T01:44:19;3.07;;;0.80;;
69310;SDS011;56430;48.154;16.458;2023-02-26T01:49:39;2.15;;;0.50;;
69310;SDS011;56430;48.154;16.458;2023-02-26T01:52:28;2.40;;;0.60;;
69310;SDS011;56430;48.154;16.458;2023-02-26T01:54:54;2.38;;;0.50;;
69310;SDS011;56430;48.154;16.458;2023-02-26T01:57:21;3.00;;;0.63;;
69310;SDS011;56430;48.154;16.458;2023-02-26T01:59:49;2.72;;;0.75;;
69310;SDS011;56430;48.154;16.458;2023-02-26T02:02:17;2.90;;;0.52;;
69310;SDS011;56430;48.154;16.458;2023-02-26T02:04:44;1.98;;;0.52;;
69310;SDS011;56430;48.154;16.458;2023-02-26T02:07:12;2.47;;;0.60;;
69310;SDS011;56430;48.154;16.458;2023-02-26T02:09:39;2.67;;;0.67;;
69310;SDS011;56430;48.154;16.458;2023-02-26T02:12:12;2.72;;;0.60;;
69310;SDS011;56430;48.154;16.458;2023-02-26T02:14:42;2.33;;;0.45;;
69310;SDS011;56430;48.154;16.458;2023-02-26T02:17:13;2.83;;;0.55;;
69310;SDS011;56430;48.154;16.458;2023-02-26T02:22:39;3.10;;;0.70;;
69310;SDS011;56430;48.154;16.458;2023-02-26T02:25:16;4.13;;;0.57;;
69310;SDS011;56430;48.154;16.458;2023-02-26T02:27:48;2.00;;;0.50;;
69310;SDS011;56430;48.154;16.458;2023-02-26T02:30:23;2.75;;;0.47;;
69310;SDS011;56430;48.154;16.458;2023-02-26T02:32:53;1.77;;;0.32;;
69310;SDS011;56430;48.154;16.458;2023-02-26T02:35:23;2.33;;;0.40;;
69310;SDS011;56430;48.154;16.458;2023-02-26T02:37:53;2.88;;;0.57;;
69310;SDS011;56430;48.154;16.458;2023-02-26T02:40:23;1.92;;;0.40;;
69310;SDS011;56430;48.154;16.458;2023-02-26T02:42:52;2.50;;;0.68;;
69310;SDS011;56430;48.154;16.458;2023-02-26T02:48:25;2.10;;;0.30;;
69310;SDS011;56430;48.154;16.458;2023-02-26T02:50:55;2.15;;;0.40;;
69310;SDS011;56430;48.154;16.458;2023-02-26T02:53:24;2.28;;;0.60;;
69310;SDS011;56430;48.154;16.458;2023-02-26T02:55:53;1.60;;;0.40;;
69310;SDS011;56430;48.154;16.458;2023-02-26T02:58:21;2.13;;;0.50;;
69310;SDS011;56430;48.154;16.458;2023-02-26T03:00:51;2.47;;;0.60;;
69310;SDS011;56430;48.154;16.458;2023-02-26T03:03:20;2.50;;;0.60;;
69310;SDS011;56430;48.154;16.458;2023-02-26T03:05:49;3.15;;;0.60;;
69310;SDS011;56430;48.154;16.458;2023-02-26T03:08:17;3.35;;;0.50;;
69310;SDS011;56430;48.154;16.458;2023-02-26T03:10:45;1.60;;;0.40;;
69310;SDS011;56430;48.154;16.458;2023-02-26T03:13:14;2.23;;;0.57;;
69310;SDS011;56430;48.154;16.458;2023-02-26T03:15:44;2.67;;;0.50;;
69310;SDS011;56430;48.154;16.458;2023-02-26T03:18:16;3.03;;;0.63;;
69310;SDS011;56430;48.154;16.458;2023-02-26T03:20:46;1.92;;;0.30;;
69310;SDS011;56430;48.154;16.458;2023-02-26T03:23:20;2.50;;;0.50;;
69310;SDS011;56430;48.154;16.458;2023-02-26T03:25:48;3.57;;;0.70;;
69310;SDS011;56430;48.154;16.458;2023-02-26T03:28:17;2.28;;;0.50;;
69310;SDS011;56430;48.154;16.458;2023-02-26T03:30:47;3.33;;;0.60;;
69310;SDS011;56430;48.154;16.458;2023-02-26T03:33:17;2.45;;;0.47;;
69310;SDS011;56430;48.154;16.458;2023-02-26T03:35:47;2.83;;;0.60;;
69310;SDS011;56430;48.154;16.458;2023-02-26T03:38:16;3.10;;;0.50;;
69310;SDS011;56430;48.154;16.458;2023-02-26T03:40:48;1.90;;;0.52;;
69310;SDS011;56430;48.154;16.458;2023-02-26T03:43:17;2.08;;;0.63;;
69310;SDS011;56430;48.154;16.458;2023-02-26T03:45:47;2.38;;;0.43;;
69310;SDS011;56430;48.154;16.458;2023-02-26T03:48:16;1.77;;;0.60;;
69310;SDS011;56430;48.154;16.458;2023-02-26T03:50:45;1.70;;;0.30;;
69310;SDS011;56430;48.154;16.458;2023-02-26T03:53:15;2.00;;;0.40;;
69310;SDS011;56430;48.154;16.458;2023-02-26T03:55:45;2.85;;;0.50;;
69310;SDS011;56430;48.154;16.458;2023-02-26T03:58:14;1.60;;;0.25;;
69310;SDS011;56430;48.154;16.458;2023-02-26T04:00:42;1.90;;;0.25;;
69310;SDS011;56430;48.154;16.458;2023-02-26T04:03:11;2.27;;;0.57;;
69310;SDS011;56430;48.154;16.458;2023-02-26T04:05:41;1.73;;;0.40;;
69310;SDS011;56430;48.154;16.458;2023-02-26T04:08:10;2.13;;;0.50;;
69310;SDS011;56430;48.154;16.458;2023-02-26T04:10:39;2.35;;;0.50;;
69310;SDS011;56430;48.154;16.458;2023-02-26T04:13:06;2.17;;;0.68;;
69310;SDS011;56430;48.154;16.458;2023-02-26T04:15:37;1.83;;;0.40;;
69310;SDS011;56430;48.154;16.458;2023-02-26T04:18:04;1.75;;;0.25;;
69310;SDS011;56430;48.154;16.458;2023-02-26T04:20:31;2.45;;;0.47;;
69310;SDS011;56430;48.154;16.458;2023-02-26T04:22:58;2.22;;;0.50;;
69310;SDS011;56430;48.154;16.458;2023-02-26T04:25:25;2.33;;;0.68;;
69310;SDS011;56430;48.154;16.458;2023-02-26T04:27:52;2.10;;;0.50;;
69310;SDS011;56430;48.154;16.458;2023-02-26T04:30:19;2.45;;;0.50;;
69310;SDS011;56430;48.154;16.458;2023-02-26T04:32:47;3.08;;;0.80;;
69310;SDS011;56430;48.154;16.458;2023-02-26T04:35:14;2.55;;;0.55;;
69310;SDS011;56430;48.154;16.458;2023-02-26T04:37:41;2.75;;;0.60;;
69310;SDS011;56430;48.154;16.458;2023-02-26T04:40:09;2.53;;;0.53;;
69310;SDS011;56430;48.154;16.458;2023-02-26T04:42:36;2.20;;;0.60;;
69310;SDS011;56430;48.154;16.458;2023-02-26T04:45:03;2.92;;;0.75;;
69310;SDS011;56430;48.154;16.458;2023-02-26T04:47:30;2.10;;;0.60;;
69310;SDS011;56430;48.154;16.458;2023-02-26T04:49:58;2.88;;;0.65;;
69310;SDS011;56430;48.154;16.458;2023-02-26T04:52:25;2.47;;;0.60;;
69310;SDS011;56430;48.154;16.458;2023-02-26T04:54:52;2.40;;;0.57;;
69310;SDS011;56430;48.154;16.458;2023-02-26T04:57:19;2.47;;;0.73;;
69310;SDS011;56430;48.154;16.458;2023-02-26T04:59:46;2.22;;;0.70;;
69310;SDS011;56430;48.154;16.458;2023-02-26T05:02:13;1.88;;;0.47;;
69310;SDS011;56430;48.154;16.458;2023-02-26T05:04:40;3.60;;;0.73;;
69310;SDS011;56430;48.154;16.458;2023-02-26T05:07:08;2.22;;;0.60;;
69310;SDS011;56430;48.154;16.458;2023-02-26T05:09:35;2.15;;;0.57;;
69310;SDS011;56430;48.154;16.458;2023-02-26T05:12:02;3.10;;;0.70;;
69310;SDS011;56430;48.154;16.458;2023-02-26T05:14:29;2.55;;;0.60;;
69310;SDS011;56430;48.154;16.458;2023-02-26T05:16:56;3.93;;;0.70;;
69310;SDS011;56430;48.154;16.458;2023-02-26T05:19:22;2.70;;;0.80;;
69310;SDS011;56430;48.154;16.458;2023-02-26T05:21:49;3.20;;;0.90;;
69310;SDS011;56430;48.154;16.458;2023-02-26T05:24:18;2.95;;;0.90;;
69310;SDS011;56430;48.154;16.458;2023-02-26T05:26:44;2.60;;;0.80;;
69310;SDS011;56430;48.154;16.458;2023-02-26T05:29:12;3.03;;;0.80;;
69310;SDS011;56430;48.154;16.458;2023-02-26T05:31:38;2.88;;;0.82;;
69310;SDS011;56430;48.154;16.458;2023-02-26T05:34:06;3.38;;;0.90;;
69310;SDS011;56430;48.154;16.458;2023-02-26T05:39:23;3.58;;;1.27;;
69310;SDS011;56430;48.154;16.458;2023-02-26T05:41:50;3.27;;;1.10;;
69310;SDS011;56430;48.154;16.458;2023-02-26T05:44:19;2.30;;;0.52;;
69310;SDS011;56430;48.154;16.458;2023-02-26T05:46:46;3.90;;;1.17;;
69310;SDS011;56430;48.154;16.458;2023-02-26T05:49:13;4.00;;;1.35;;
69310;SDS011;56430;48.154;16.458;2023-02-26T05:51:40;4.20;;;1.63;;
69310;SDS011;56430;48.154;16.458;2023-02-26T05:54:07;3.70;;;1.10;;
69310;SDS011;56430;48.154;16.458;2023-02-26T05:56:35;4.57;;;0.93;;
69310;SDS011;56430;48.154;16.458;2023-02-26T05:59:02;4.05;;;1.65;;
69310;SDS011;56430;48.154;16.458;2023-02-26T06:01:29;4.55;;;1.60;;
69310;SDS011;56430;48.154;16.458;2023-02-26T06:03:56;3.55;;;1.20;;
69310;SDS011;56430;48.154;16.458;2023-02-26T06:06:23;4.83;;;1.43;;
69310;SDS011;56430;48.154;16.458;2023-02-26T06:08:51;2.83;;;0.85;;
69310;SDS011;56430;48.154;16.458;2023-02-26T06:11:18;4.18;;;1.27;;
69310;SDS011;56430;48.154;16.458;2023-02-26T06:13:46;4.60;;;1.50;;
69310;SDS011;56430;48.154;16.458;2023-02-26T06:16:13;3.88;;;1.50;;
69310;SDS011;56430;48.154;16.458;2023-02-26T06:18:40;4.30;;;1.40;;
69310;SDS011;56430;48.154;16.458;2023-02-26T06:21:07;4.88;;;1.60;;
69310;SDS011;56430;48.154;16.458;2023-02-26T06:23:34;4.90;;;1.55;;
69310;SDS011;56430;48.154;16.458;2023-02-26T06:26:00;4.22;;;1.20;;
69310;SDS011;56430;48.154;16.458;2023-02-26T06:28:27;3.60;;;1.35;;
69310;SDS011;56430;48.154;16.458;2023-02-26T06:30:56;4.90;;;1.13;;
69310;SDS011;56430;48.154;16.458;2023-02-26T06:33:23;3.40;;;1.40;;
69310;SDS011;56430;48.154;16.458;2023-02-26T06:35:50;5.72;;;1.75;;
69310;SDS011;56430;48.154;16.458;2023-02-26T06:38:17;4.03;;;1.30;;
69310;SDS011;56430;48.154;16.458;2023-02-26T06:40:44;3.55;;;1.13;;
69310;SDS011;56430;48.154;16.458;2023-02-26T06:43:12;4.70;;;0.90;;
69310;SDS011;56430;48.154;16.458;2023-02-26T06:45:39;7.82;;;1.48;;
69310;SDS011;56430;48.154;16.458;2023-02-26T06:48:07;3.70;;;1.17;;
69310;SDS011;56430;48.154;16.458;2023-02-26T06:50:34;3.88;;;1.30;;
69310;SDS011;56430;48.154;16.458;2023-02-26T06:53:01;3.42;;;1.20;;
69310;SDS011;56430;48.154;16.458;2023-02-26T06:55:28;4.93;;;1.30;;
69310;SDS011;56430;48.154;16.458;2023-02-26T06:57:55;3.83;;;1.20;;
69310;SDS011;56430;48.154;16.458;2023-02-26T07:00:22;5.35;;;1.67;;
69310;SDS011;56430;48.154;16.458;2023-02-26T07:02:49;3.70;;;1.30;;
69310;SDS011;56430;48.154;16.458;2023-02-26T07:08:21;4.30;;;1.10;;
69310;SDS011;56430;48.154;16.458;2023-02-26T07:10:48;3.22;;;1.10;;
69310;SDS011;56430;48.154;16.458;2023-02-26T07:13:15;3.88;;;1.25;;
69310;SDS011;56430;48.154;16.458;2023-02-26T07:15:42;3.58;;;1.08;;
69310;SDS011;56430;48.154;16.458;2023-02-26T07:18:09;4.00;;;1.42;;
69310;SDS011;56430;48.154;16.458;2023-02-26T07:20:36;3.73;;;1.03;;
69310;SDS011;56430;48.154;16.458;2023-02-26T07:23:03;6.82;;;1.60;;
69310;SDS011;56430;48.154;16.458;2023-02-26T07:25:31;4.05;;;1.40;;
69310;SDS011;56430;48.154;16.458;2023-02-26T07:27:58;4.00;;;1.40;;
69310;SDS011;56430;48.154;16.458;2023-02-26T07:30:25;5.22;;;1.70;;
69310;SDS011;56430;48.154;16.458;2023-02-26T07:32:52;3.40;;;1.30;;
69310;SDS011;56430;48.154;16.458;2023-02-26T07:35:19;3.88;;;1.42;;
69310;SDS011;56430;48.154;16.458;2023-02-26T07:37:46;3.95;;;1.23;;
69310;SDS011;56430;48.154;16.458;2023-02-26T07:40:13;3.78;;;1.20;;
69310;SDS011;56430;48.154;16.458;2023-02-26T07:42:41;4.47;;;1.40;;
69310;SDS011;56430;48.154;16.458;2023-02-26T07:45:11;2.80;;;1.00;;
69310;SDS011;56430;48.154;16.458;2023-02-26T07:47:38;3.53;;;1.02;;
69310;SDS011;56430;48.154;16.458;2023-02-26T07:50:05;3.25;;;1.00;;
69310;SDS011;56430;48.154;16.458;2023-02-26T07:52:32;3.75;;;1.00;;
69310;SDS011;56430;48.154;16.458;2023-02-26T07:54:59;4.10;;;1.00;;
69310;SDS011;56430;48.154;16.458;2023-02-26T07:57:25;3.60;;;1.10;;
69310;SDS011;56430;48.154;16.458;2023-02-26T07:59:54;3.45;;;1.20;;
69310;SDS011;56430;48.154;16.458;2023-02-26T08:02:20;3.20;;;1.17;;
69310;SDS011;56430;48.154;16.458;2023-02-26T08:04:48;3.05;;;0.95;;
69310;SDS011;56430;48.154;16.458;2023-02-26T08:07:15;3.00;;;1.00;;
69310;SDS011;56430;48.154;16.458;2023-02-26T08:09:42;3.03;;;1.20;;
69310;SDS011;56430;48.154;16.458;2023-02-26T08:12:11;4.78;;;1.13;;
69310;SDS011;56430;48.154;16.458;2023-02-26T08:14:37;3.13;;;1.35;;
69310;SDS011;56430;48.154;16.458;2023-02-26T08:17:07;3.30;;;1.20;;
69310;SDS011;56430;48.154;16.458;2023-02-26T08:19:34;3.20;;;1.00;;
69310;SDS011;56430;48.154;16.458;2023-02-26T08:22:01;4.40;;;1.20;;
69310;SDS011;56430;48.154;16.458;2023-02-26T08:24:28;3.53;;;1.10;;
69310;SDS011;56430;48.154;16.458;2023-02-26T08:26:55;3.13;;;1.00;;
69310;SDS011;56430;48.154;16.458;2023-02-26T08:29:22;3.05;;;1.30;;
69310;SDS011;56430;48.154;16.458;2023-02-26T08:31:49;3.00;;;1.02;;
69310;SDS011;56430;48.154;16.458;2023-02-26T08:34:18;4.73;;;1.50;;
69310;SDS011;56430;48.154;16.458;2023-02-26T08:36:45;3.85;;;1.52;;
69310;SDS011;56430;48.154;16.458;2023-02-26T08:39:14;3.08;;;0.90;;
69310;SDS011;56430;48.154;16.458;2023-02-26T08:41:41;2.53;;;1.08;;
69310;SDS011;56430;48.154;16.458;2023-02-26T08:44:08;3.20;;;1.17;;
69310;SDS011;56430;48.154;16.458;2023-02-26T08:46:35;3.20;;;1.13;;
69310;SDS011;56430;48.154;16.458;2023-02-26T08:49:02;4.18;;;1.35;;
69310;SDS011;56430;48.154;16.458;2023-02-26T08:51:30;3.53;;;1.20;;
69310;SDS011;56430;48.154;16.458;2023-02-26T08:53:57;4.85;;;0.98;;
69310;SDS011;56430;48.154;16.458;2023-02-26T08:56:24;3.33;;;1.20;;
69310;SDS011;56430;48.154;16.458;2023-02-26T08:58:51;3.57;;;1.30;;
69310;SDS011;56430;48.154;16.458;2023-02-26T09:01:18;3.20;;;0.88;;
69310;SDS011;56430;48.154;16.458;2023-02-26T09:03:45;3.30;;;0.80;;
69310;SDS011;56430;48.154;16.458;2023-02-26T09:06:11;3.15;;;0.70;;
69310;SDS011;56430;48.154;16.458;2023-02-26T09:08:41;2.70;;;0.70;;
69310;SDS011;56430;48.154;16.458;2023-02-26T09:11:07;2.00;;;0.40;;
69310;SDS011;56430;48.154;16.458;2023-02-26T09:13:34;2.83;;;0.43;;
69310;SDS011;56430;48.154;16.458;2023-02-26T09:16:01;3.83;;;0.80;;
69310;SDS011;56430;48.154;16.458;2023-02-26T09:18:28;4.10;;;1.23;;
69310;SDS011;56430;48.154;16.458;2023-02-26T09:20:55;2.30;;;0.70;;
69310;SDS011;56430;48.154;16.458;2023-02-26T09:23:22;2.50;;;0.73;;
69310;SDS011;56430;48.154;16.458;2023-02-26T09:25:53;3.17;;;0.70;;
69310;SDS011;56430;48.154;16.458;2023-02-26T09:28:22;3.25;;;0.90;;
69310;SDS011;56430;48.154;16.458;2023-02-26T09:30:50;3.35;;;0.73;;
69310;SDS011;56430;48.154;16.458;2023-02-26T09:33:17;3.40;;;0.98;;
69310;SDS011;56430;48.154;16.458;2023-02-26T09:35:46;3.43;;;0.90;;
69310;SDS011;56430;48.154;16.458;2023-02-26T09:38:13;2.92;;;1.00;;
69310;SDS011;56430;48.154;16.458;2023-02-26T09:40:42;4.43;;;1.70;;
69310;SDS011;56430;48.154;16.458;2023-02-26T09:45:56;3.58;;;0.82;;
69310;SDS011;56430;48.154;16.458;2023-02-26T09:48:24;2.90;;;0.80;;
69310;SDS011;56430;48.154;16.458;2023-02-26T09:50:52;4.10;;;0.88;;
69310;SDS011;56430;48.154;16.458;2023-02-26T09:53:23;3.83;;;0.77;;
69310;SDS011;56430;48.154;16.458;2023-02-26T09:55:52;5.85;;;1.08;;
69310;SDS011;56430;48.154;16.458;2023-02-26T09:58:21;2.85;;;0.80;;
69310;SDS011;56430;48.154;16.458;2023-02-26T10:00:52;3.97;;;0.77;;
69310;SDS011;56430;48.154;16.458;2023-02-26T10:03:23;3.95;;;1.08;;
69310;SDS011;56430;48.154;16.458;2023-02-26T10:05:56;3.83;;;0.70;;
69310;SDS011;56430;48.154;16.458;2023-02-26T10:08:27;2.88;;;0.52;;
69310;SDS011;56430;48.154;16.458;2023-02-26T10:10:58;2.38;;;0.45;;
69310;SDS011;56430;48.154;16.458;2023-02-26T10:13:28;1.90;;;0.50;;
69310;SDS011;56430;48.154;16.458;2023-02-26T10:16:00;2.50;;;0.50;;
69310;SDS011;56430;48.154;16.458;2023-02-26T10:18:33;2.65;;;0.88;;
69310;SDS011;56430;48.154;16.458;2023-02-26T10:21:02;3.22;;;0.80;;
69310;SDS011;56430;48.154;16.458;2023-02-26T10:23:36;2.30;;;0.60;;
69310;SDS011;56430;48.154;16.458;2023-02-26T10:26:06;2.13;;;0.43;;
69310;SDS011;56430;48.154;16.458;2023-02-26T10:28:38;2.33;;;0.47;;
69310;SDS011;56430;48.154;16.458;2023-02-26T10:31:08;2.53;;;0.43;;
69310;SDS011;56430;48.154;16.458;2023-02-26T10:33:39;2.78;;;0.60;;
69310;SDS011;56430;48.154;16.458;2023-02-26T10:36:13;2.90;;;0.52;;
69310;SDS011;56430;48.154;16.458;2023-02-26T10:38:41;3.77;;;0.60;;
69310;SDS011;56430;48.154;16.458;2023-02-26T10:41:11;2.25;;;0.47;;
69310;SDS011;56430;48.154;16.458;2023-02-26T10:43:39;3.72;;;0.50;;
69310;SDS011;56430;48.154;16.458;2023-02-26T10:46:15;2.08;;;0.50;;
69310;SDS011;56430;48.154;16.458;2023-02-26T10:48:48;2.40;;;0.40;;
69310;SDS011;56430;48.154;16.458;2023-02-26T10:51:18;2.70;;;0.50;;
69310;SDS011;56430;48.154;16.458;2023-02-26T10:53:46;1.92;;;0.50;;
69310;SDS011;56430;48.154;16.458;2023-02-26T10:56:15;2.13;;;0.40;;
69310;SDS011;56430;48.154;16.458;2023-02-26T10:58:43;2.10;;;0.50;;
69310;SDS011;56430;48.154;16.458;2023-02-26T11:01:12;1.63;;;0.30;;
69310;SDS011;56430;48.154;16.458;2023-02-26T11:03:43;1.87;;;0.30;;
69310;SDS011;56430;48.154;16.458;2023-02-26T11:06:14;1.70;;;0.28;;
69310;SDS011;56430;48.154;16.458;2023-02-26T11:08:42;2.55;;;0.38;;
69310;SDS011;56430;48.154;16.458;2023-02-26T11:11:10;3.50;;;0.63;;
69310;SDS011;56430;48.154;16.458;2023-02-26T11:13:57;2.00;;;0.50;;
69310;SDS011;56430;48.154;16.458;2023-02-26T11:16:24;1.97;;;0.40;;
69310;SDS011;56430;48.154;16.458;2023-02-26T11:18:52;2.15;;;0.47;;
69310;SDS011;56430;48.154;16.458;2023-02-26T11:21:21;2.45;;;0.47;;
69310;SDS011;56430;48.154;16.458;2023-02-26T11:23:49;2.75;;;0.68;;
69310;SDS011;56430;48.154;16.458;2023-02-26T11:26:18;2.40;;;0.50;;
69310;SDS011;56430;48.154;16.458;2023-02-26T11:28:46;4.60;;;0.70;;
69310;SDS011;56430;48.154;16.458;2023-02-26T11:31:16;3.45;;;0.40;;
69310;SDS011;56430;48.154;16.458;2023-02-26T11:33:43;2.53;;;0.40;;
69310;SDS011;56430;48.154;16.458;2023-02-26T11:36:13;1.92;;;0.35;;
69310;SDS011;56430;48.154;16.458;2023-02-26T11:38:41;5.22;;;0.73;;
69310;SDS011;56430;48.154;16.458;2023-02-26T11:41:10;3.70;;;0.47;;
69310;SDS011;56430;48.154;16.458;2023-02-26T11:43:38;2.10;;;0.45;;
69310;SDS011;56430;48.154;16.458;2023-02-26T11:46:07;1.95;;;0.40;;
69310;SDS011;56430;48.154;16.458;2023-02-26T11:48:38;2.55;;;0.50;;
69310;SDS011;56430;48.154;16.458;2023-02-26T11:51:05;2.72;;;0.70;;
69310;SDS011;56430;48.154;16.458;2023-02-26T11:53:33;2.97;;;0.67;;
69310;SDS011;56430;48.154;16.458;2023-02-26T11:56:02;3.35;;;0.60;;
69310;SDS011;56430;48.154;16.458;2023-02-26T11:58:34;2.30;;;0.40;;
69310;SDS011;56430;48.154;16.458;2023-02-26T12:01:02;3.15;;;0.50;;
69310;SDS011;56430;48.154;16.458;2023-02-26T12:03:31;2.55;;;0.60;;
69310;SDS011;56430;48.154;16.458;2023-02-26T12:05:58;1.77;;;0.37;;
69310;SDS011;56430;48.154;16.458;2023-02-26T12:08:28;2.25;;;0.40;;
69310;SDS011;56430;48.154;16.458;2023-02-26T12:11:00;2.28;;;0.43;;
69310;SDS011;56430;48.154;16.458;2023-02-26T12:13:34;1.33;;;0.30;;
69310;SDS011;56430;48.154;16.458;2023-02-26T12:16:04;1.10;;;0.10;;
69310;SDS011;56430;48.154;16.458;2023-02-26T12:18:37;2.10;;;0.30;;
69310;SDS011;56430;48.154;16.458;2023-02-26T12:21:11;1.38;;;0.20;;
69310;SDS011;56430;48.154;16.458;2023-02-26T12:23:50;1.42;;;0.20;;
69310;SDS011;56430;48.154;16.458;2023-02-26T12:26:25;1.80;;;0.30;;
69310;SDS011;56430;48.154;16.458;2023-02-26T12:32:01;5.40;;;1.23;;
69310;SDS011;56430;48.154;16.458;2023-02-26T12:34:54;3.58;;;0.95;;
69310;SDS011;56430;48.154;16.458;2023-02-26T12:37:30;2.83;;;0.70;;
69310;SDS011;56430;48.154;16.458;2023-02-26T12:40:07;4.03;;;1.00;;
69310;SDS011;56430;48.154;16.458;2023-02-26T12:42:39;3.83;;;0.65;;
69310;SDS011;56430;48.154;16.458;2023-02-26T12:45:12;2.10;;;0.30;;
69310;SDS011;56430;48.154;16.458;2023-02-26T12:47:49;1.63;;;0.28;;
69310;SDS011;56430;48.154;16.458;2023-02-26T12:50:24;1.90;;;0.40;;
69310;SDS011;56430;48.154;16.458;2023-02-26T12:53:08;2.95;;;0.32;;
69310;SDS011;56430;48.154;16.458;2023-02-26T12:55:43;1.38;;;0.32;;
69310;SDS011;56430;48.154;16.458;2023-02-26T12:58:17;2.50;;;0.30;;
69310;SDS011;56430;48.154;16.458;2023-02-26T13:00:53;2.00;;;0.50;;
69310;SDS011;56430;48.154;16.458;2023-02-26T13:03:39;2.97;;;0.50;;
69310;SDS011;56430;48.154;16.458;2023-02-26T13:08:52;2.90;;;0.47;;
69310;SDS011;56430;48.154;16.458;2023-02-26T13:11:25;3.67;;;0.80;;
69310;SDS011;56430;48.154;16.458;2023-02-26T13:14:02;2.35;;;0.50;;
69310;SDS011;56430;48.154;16.458;2023-02-26T13:16:33;2.40;;;0.47;;
69310;SDS011;56430;48.154;16.458;2023-02-26T13:19:04;2.90;;;0.50;;
69310;SDS011;56430;48.154;16.458;2023-02-26T13:21:34;1.90;;;0.40;;
69310;SDS011;56430;48.154;16.458;2023-02-26T13:24:02;3.33;;;0.40;;
69310;SDS011;56430;48.154;16.458;2023-02-26T13:26:32;3.97;;;0.70;;
69310;SDS011;56430;48.154;16.458;2023-02-26T13:29:01;2.75;;;0.77;;
69310;SDS011;56430;48.154;16.458;2023-02-26T13:31:37;3.00;;;0.35;;
69310;SDS011;56430;48.154;16.458;2023-02-26T13:34:10;2.63;;;0.63;;
69310;SDS011;56430;48.154;16.458;2023-02-26T13:36:38;2.73;;;0.50;;
69310;SDS011;56430;48.154;16.458;2023-02-26T13:39:11;2.40;;;0.30;;
69310;SDS011;56430;48.154;16.458;2023-02-26T13:41:47;2.10;;;0.50;;
69310;SDS011;56430;48.154;16.458;2023-02-26T13:44:25;3.28;;;0.65;;
69310;SDS011;56430;48.154;16.458;2023-02-26T13:47:00;2.13;;;0.60;;
69310;SDS011;56430;48.154;16.458;2023-02-26T13:49:33;2.47;;;0.50;;
69310;SDS011;56430;48.154;16.458;2023-02-26T13:52:04;2.25;;;0.25;;
69310;SDS011;56430;48.154;16.458;2023-02-26T13:54:41;2.42;;;0.50;;
69310;SDS011;56430;48.154;16.458;2023-02-26T13:57:19;3.10;;;0.80;;
69310;SDS011;56430;48.154;16.458;2023-02-26T14:00:00;2.20;;;0.40;;
69310;SDS011;56430;48.154;16.458;2023-02-26T14:02:51;2.60;;;0.50;;
69310;SDS011;56430;48.154;16.458;2023-02-26T14:05:34;2.35;;;0.63;;
69310;SDS011;56430;48.154;16.458;2023-02-26T14:08:09;2.08;;;0.40;;
69310;SDS011;56430;48.154;16.458;2023-02-26T14:10:44;3.25;;;0.68;;
69310;SDS011;56430;48.154;16.458;2023-02-26T14:13:13;2.00;;;0.40;;
69310;SDS011;56430;48.154;16.458;2023-02-26T14:15:42;3.00;;;0.60;;
69310;SDS011;56430;48.154;16.458;2023-02-26T14:24:04;2.42;;;0.60;;
69310;SDS011;56430;48.154;16.458;2023-02-26T14:26:32;3.25;;;0.73;;
69310;SDS011;56430;48.154;16.458;2023-02-26T14:29:07;2.77;;;0.87;;
69310;SDS011;56430;48.154;16.458;2023-02-26T14:34:30;2.22;;;0.60;;
69310;SDS011;56430;48.154;16.458;2023-02-26T14:36:58;2.15;;;0.30;;
69310;SDS011;56430;48.154;16.458;2023-02-26T14:39:29;2.75;;;0.40;;
69310;SDS011;56430;48.154;16.458;2023-02-26T14:41:59;2.83;;;0.40;;
69310;SDS011;56430;48.154;16.458;2023-02-26T14:44:28;1.90;;;0.50;;
69310;SDS011;56430;48.154;16.458;2023-02-26T14:46:57;2.35;;;0.45;;
69310;SDS011;56430;48.154;16.458;2023-02-26T14:49:28;3.22;;;0.50;;
69310;SDS011;56430;48.154;16.458;2023-02-26T14:52:01;4.68;;;0.80;;
69310;SDS011;56430;48.154;16.458;2023-02-26T14:54:55;3.67;;;0.70;;
69310;SDS011;56430;48.154;16.458;2023-02-26T14:57:29;2.55;;;0.60;;
69310;SDS011;56430;48.154;16.458;2023-02-26T15:00:03;3.20;;;0.50;;
69310;SDS011;56430;48.154;16.458;2023-02-26T15:02:41;1.83;;;0.50;;
69310;SDS011;56430;48.154;16.458;2023-02-26T15:07:55;4.47;;;0.50;;
69310;SDS011;56430;48.154;16.458;2023-02-26T15:10:35;3.13;;;0.70;;
69310;SDS011;56430;48.154;16.458;2023-02-26T15:13:13;1.95;;;0.50;;
69310;SDS011;56430;48.154;16.458;2023-02-26T15:15:46;2.70;;;0.50;;
69310;SDS011;56430;48.154;16.458;2023-02-26T15:18:21;3.17;;;0.55;;
69310;SDS011;56430;48.154;16.458;2023-02-26T15:20:56;2.03;;;0.40;;